CPX954 Details

Departure: Patrick Air Force Base (KCOF)
Arrival: Miami International Airport (KMIA) at N/A
Route: MLB BLUFI4
Notes: EMPTY | NON-REVENUE REPOSITIONING LEG | VFR DEPARTURE RCMD IF WX PERMITS


Current Weather Information
KCOF 231356Z AUTO 01012G18KT 10SM CLR 27/21 A3005 RMK AO2 SLP180 T02650208 TSNO $
KMIA 231353Z 12008KT 10SM FEW010 FEW022 SCT250 30/23 A3001 RMK AO2 SLP162 T03000233